Time;durP1;ratioP1;P1;durP2;ratioP2;P2;SDS_P1;SDS_P2;PMS_P1;PMS_P2;Temp;Humidity;BMP_temperature;BMP_pressure;BME280_temperature;BME280_humidity;BME280_pressure;Samples;Min_cycle;Max_cycle;Signal;HPM_P1;HPM_P2
2021/08/05 00:02:22;;;;;;;6.68;3.35;;;;;;;23.94;61.03;99316.75;4288445;33;33513;-87
2021/08/05 00:04:50;;;;;;;5.87;2.90;;;;;;;24.20;60.19;99313.34;4288248;33;34052;-88
2021/08/05 00:07:18;;;;;;;4.62;2.95;;;;;;;24.14;60.06;99309.28;4288304;33;34631;-88
2021/08/05 00:09:45;;;;;;;3.12;2.35;;;;;;;24.19;59.90;99301.88;4276325;33;33548;-88
2021/08/05 00:12:14;;;;;;;4.97;3.00;;;;;;;24.38;59.36;99306.87;4276235;33;32812;-88
2021/08/05 00:14:42;;;;;;;3.03;2.60;;;;;;;24.36;59.30;99305.25;4276100;33;33390;-88
2021/08/05 00:17:11;;;;;;;6.05;3.03;;;;;;;24.47;59.01;99298.31;4287711;33;35562;-88
2021/08/05 00:19:39;;;;;;;3.20;2.30;;;;;;;24.32;59.43;99293.97;4276118;33;33601;-88
2021/08/05 00:22:07;;;;;;;4.75;2.90;;;;;;;24.42;59.16;99287.09;4288140;33;33875;-88
2021/08/05 00:24:35;;;;;;;4.82;2.67;;;;;;;24.54;58.70;99273.03;4288004;33;34149;-88
2021/08/05 00:27:08;;;;;;;5.22;2.67;;;;;;;24.43;59.14;99272.88;4288474;33;34677;-88
2021/08/05 00:29:36;;;;;;;3.97;2.58;;;;;;;24.51;58.77;99259.94;4276365;33;34299;-88
2021/08/05 00:32:04;;;;;;;3.65;2.42;;;;;;;24.60;57.71;99256.69;4288256;33;33446;-88
2021/08/05 00:34:32;;;;;;;2.47;2.28;;;;;;;24.63;57.30;99243.16;4288183;33;34203;-88
2021/08/05 00:37:00;;;;;;;2.72;2.28;;;;;;;24.54;57.31;99249.09;4287913;33;34623;-88
2021/08/05 00:39:29;;;;;;;2.58;2.37;;;;;;;24.56;56.84;99236.56;4288017;33;34885;-88
2021/08/05 00:41:56;;;;;;;3.83;2.10;;;;;;;24.55;56.10;99237.53;4289095;33;33966;-88
2021/08/05 00:44:24;;;;;;;2.87;2.05;;;;;;;24.68;55.27;99226.91;4288031;33;34017;-88
2021/08/05 00:46:51;;;;;;;4.15;2.00;;;;;;;24.67;55.04;99233.19;4275952;33;35011;-88
2021/08/05 00:49:19;;;;;;;3.58;2.15;;;;;;;24.66;54.86;99220.84;4276057;33;33521;-88
2021/08/05 00:51:47;;;;;;;2.97;2.30;;;;;;;24.72;54.55;99231.91;4276112;33;33102;-88
2021/08/05 00:54:16;;;;;;;2.92;2.08;;;;;;;24.89;53.67;99228.16;4287942;33;34740;-88
2021/08/05 00:56:43;;;;;;;3.37;2.25;;;;;;;24.82;54.23;99225.06;4287826;33;34580;-88
2021/08/05 00:59:11;;;;;;;3.40;2.20;;;;;;;24.83;54.38;99223.25;4287874;33;34255;-88
2021/08/05 01:02:10;;;;;;;2.12;1.80;;;;;;;24.96;53.66;99217.97;4264507;33;33760;-88
2021/08/05 01:04:38;;;;;;;4.20;2.15;;;;;;;24.89;53.57;99213.06;4288205;33;33995;-88
2021/08/05 01:07:25;;;;;;;4.72;2.10;;;;;;;24.92;53.35;99201.34;4287721;33;35659;-88
2021/08/05 01:10:02;;;;;;;2.90;2.10;;;;;;;24.98;53.20;99192.13;4264361;33;34343;-88
2021/08/05 01:12:53;;;;;;;4.68;2.10;;;;;;;24.96;53.22;99188.72;4287779;33;33690;-88
2021/08/05 01:15:23;;;;;;;4.82;2.05;;;;;;;25.01;53.07;99186.59;4276075;33;34806;-88
2021/08/05 01:17:58;;;;;;;3.58;2.25;;;;;;;25.00;53.11;99171.59;4287759;33;35066;-87
2021/08/05 01:20:27;;;;;;;2.40;1.70;;;;;;;25.07;52.91;99170.19;4287743;33;34054;-88
2021/08/05 01:23:16;;;;;;;4.65;2.30;;;;;;;24.98;53.17;99169.03;4275742;33;32930;-88
2021/08/05 01:25:48;;;;;;;2.50;1.95;;;;;;;25.01;52.85;99168.81;4275774;33;34073;-88
2021/08/05 01:28:16;;;;;;;2.50;1.83;;;;;;;25.07;52.79;99163.06;4275043;33;34316;-88
2021/08/05 01:30:46;;;;;;;5.97;1.92;;;;;;;25.00;53.07;99158.28;4275654;33;33452;-88
2021/08/05 01:33:17;;;;;;;2.97;2.15;;;;;;;25.04;52.87;99162.41;4275833;33;33142;-88
2021/08/05 01:35:48;;;;;;;4.10;2.20;;;;;;;25.01;52.94;99152.00;4287537;33;34115;-88
2021/08/05 01:38:17;;;;;;;4.00;2.15;;;;;;;25.09;52.66;99155.84;4287425;33;34132;-88
2021/08/05 01:40:46;;;;;;;4.28;2.10;;;;;;;25.04;52.80;99155.28;4264038;33;34914;-88
2021/08/05 01:43:14;;;;;;;5.65;2.05;;;;;;;25.01;52.86;99141.38;4275503;33;32916;-88
2021/08/05 01:45:43;;;;;;;3.67;2.08;;;;;;;25.03;52.82;99142.94;4287321;33;34024;-88
2021/08/05 01:48:14;;;;;;;6.10;2.10;;;;;;;25.15;52.42;99143.94;4287432;33;35396;-88
2021/08/05 01:50:43;;;;;;;6.57;2.40;;;;;;;25.13;52.62;99135.16;4287447;33;33522;-88
2021/08/05 01:53:15;;;;;;;8.27;2.40;;;;;;;25.02;52.95;99140.41;4275767;33;32968;-88
2021/08/05 01:55:49;;;;;;;2.97;2.17;;;;;;;24.93;53.29;99141.03;4275377;33;33932;-88
2021/08/05 01:58:16;;;;;;;3.00;2.25;;;;;;;24.87;53.43;99132.53;4275315;33;34566;-88
2021/08/05 02:00:44;;;;;;;6.80;2.42;;;;;;;25.06;52.99;99128.56;4287131;33;33492;-89
2021/08/05 02:03:13;;;;;;;2.83;2.17;;;;;;;24.81;53.55;99130.28;4287464;33;33448;-88
2021/08/05 02:06:02;;;;;;;3.00;2.12;;;;;;;24.91;53.27;99127.00;4287052;33;33451;-88
2021/08/05 02:08:47;;;;;;;3.42;2.40;;;;;;;25.05;52.92;99122.44;4275272;33;34639;-88
2021/08/05 02:11:14;;;;;;;4.35;2.40;;;;;;;25.05;52.91;99124.22;4287081;33;34095;-88
2021/08/05 02:13:42;;;;;;;3.85;2.72;;;;;;;25.01;52.99;99117.44;4274948;33;32861;-89
2021/08/05 02:16:17;;;;;;;4.20;2.62;;;;;;;25.03;52.89;99120.81;4274982;33;34014;-88
2021/08/05 02:18:49;;;;;;;6.05;2.95;;;;;;;24.96;53.12;99116.91;4286896;33;34090;-88
2021/08/05 02:21:21;;;;;;;4.45;2.20;;;;;;;24.95;53.22;99115.19;4286949;33;34364;-88
2021/08/05 02:23:54;;;;;;;7.18;2.95;;;;;;;25.08;53.03;99108.06;4287023;33;33622;-89
2021/08/05 02:26:22;;;;;;;4.55;2.80;;;;;;;25.00;53.14;99116.56;4287027;33;34758;-88
2021/08/05 02:28:50;;;;;;;4.07;2.65;;;;;;;25.08;52.79;99108.06;4286897;33;34219;-88
2021/08/05 02:31:18;;;;;;;5.80;2.75;;;;;;;25.10;52.73;99098.16;4287080;33;33720;-88
2021/08/05 02:33:46;;;;;;;3.67;2.65;;;;;;;25.11;52.76;99091.84;4286962;33;33585;-88
2021/08/05 02:36:14;;;;;;;2.83;2.17;;;;;;;25.10;52.80;99080.38;4286719;33;34451;-88
2021/08/05 02:38:42;;;;;;;3.58;2.53;;;;;;;25.13;52.66;99073.97;4274909;33;34014;-88
2021/08/05 02:41:10;;;;;;;3.15;2.70;;;;;;;25.05;52.81;99079.84;4288392;33;33890;-88
2021/08/05 02:43:38;;;;;;;3.92;2.90;;;;;;;25.07;52.75;99069.09;4289020;33;33341;-89
2021/08/05 02:46:06;;;;;;;6.10;2.80;;;;;;;25.08;52.66;99062.81;4276823;33;34766;-88
2021/08/05 02:48:35;;;;;;;4.95;2.67;;;;;;;25.09;52.64;99059.19;4288570;33;33856;-87
2021/08/05 02:51:03;;;;;;;4.30;2.75;;;;;;;25.11;52.63;99049.28;4288727;33;34272;-87
2021/08/05 02:53:32;;;;;;;18.55;3.08;;;;;;;25.15;52.66;99054.28;4288717;33;33979;-87
2021/08/05 02:56:00;;;;;;;5.60;2.70;;;;;;;24.99;53.09;99055.47;4288697;33;34419;-88
2021/08/05 02:58:28;;;;;;;6.97;2.90;;;;;;;24.96;53.26;99047.72;4288697;33;33822;-87
2021/08/05 03:00:56;;;;;;;9.27;3.25;;;;;;;24.89;53.52;99047.28;4276701;33;33599;-87
2021/08/05 03:03:24;;;;;;;24.73;3.70;;;;;;;24.97;53.45;99041.44;4288480;33;34241;-87
2021/08/05 03:05:54;;;;;;;22.73;3.90;;;;;;;25.01;53.40;99038.44;4288882;33;35341;-86
2021/08/05 03:08:21;;;;;;;13.27;3.95;;;;;;;24.99;53.49;99036.84;4276543;33;34011;-86
2021/08/05 03:10:49;;;;;;;5.45;2.87;;;;;;;24.94;53.69;99023.06;4288434;33;34357;-86
2021/08/05 03:13:17;;;;;;;8.10;3.17;;;;;;;24.97;53.62;99020.16;4265085;33;33153;-88
2021/08/05 03:15:44;;;;;;;3.80;3.25;;;;;;;24.92;53.82;99009.84;4288523;33;33894;-88
2021/08/05 03:18:12;;;;;;;5.90;3.03;;;;;;;24.96;53.71;99015.81;4277069;33;34178;-88
2021/08/05 03:20:42;;;;;;;4.37;2.87;;;;;;;24.94;53.80;99009.75;4277058;33;33466;-86
2021/08/05 03:23:09;;;;;;;11.30;3.50;;;;;;;24.93;53.91;99008.03;4288727;33;33492;-86
2021/08/05 03:25:37;;;;;;;6.75;3.40;;;;;;;24.85;54.10;99006.78;4288383;33;34191;-86
2021/08/05 03:28:05;;;;;;;4.32;3.10;;;;;;;24.94;53.94;99017.72;4288323;33;33903;-87
2021/08/05 03:30:32;;;;;;;5.35;3.20;;;;;;;25.11;53.43;99020.88;4276568;33;33361;-87
2021/08/05 03:33:00;;;;;;;4.75;2.92;;;;;;;25.03;53.57;99009.09;4276422;33;32913;-87
2021/08/05 03:35:28;;;;;;;4.20;2.95;;;;;;;24.95;53.94;99009.63;4276620;33;34377;-87
2021/08/05 03:37:55;;;;;;;4.90;3.30;;;;;;;24.86;54.25;99005.78;4276535;33;34631;-87
2021/08/05 03:40:24;;;;;;;4.47;3.00;;;;;;;24.94;54.02;99007.91;4288481;33;34936;-87
2021/08/05 03:42:52;;;;;;;4.43;2.97;;;;;;;24.86;54.39;99003.13;4276606;33;34301;-87
2021/08/05 03:45:19;;;;;;;6.15;3.30;;;;;;;24.94;54.16;99007.09;4276635;33;33658;-87
2021/08/05 03:47:47;;;;;;;5.25;3.42;;;;;;;24.93;53.98;99003.56;4288226;33;34608;-87
2021/08/05 03:50:15;;;;;;;3.80;3.30;;;;;;;24.76;54.40;99010.09;4264706;33;34440;-87
2021/08/05 03:52:42;;;;;;;6.32;3.10;;;;;;;24.76;54.50;98996.78;4287805;33;34318;-88
2021/08/05 03:55:13;;;;;;;3.95;3.12;;;;;;;24.93;54.20;99013.34;4276534;33;33699;-87
2021/08/05 03:57:41;;;;;;;6.62;3.20;;;;;;;24.82;54.13;99008.78;4276415;33;34009;-87
2021/08/05 04:00:11;;;;;;;7.05;3.47;;;;;;;24.91;53.99;99023.25;4289463;33;34049;-87
2021/08/05 04:02:40;;;;;;;5.30;3.40;;;;;;;24.82;53.81;99035.38;4288793;33;33430;-87
2021/08/05 04:05:08;;;;;;;4.60;3.40;;;;;;;24.87;53.59;99036.75;4288229;33;34733;-86
2021/08/05 04:07:35;;;;;;;8.77;3.37;;;;;;;24.80;53.96;99038.16;4288324;33;35392;-87
2021/08/05 04:10:05;;;;;;;8.88;3.37;;;;;;;24.86;53.68;99021.75;4288243;33;34564;-87
2021/08/05 04:12:33;;;;;;;8.40;3.60;;;;;;;24.90;53.62;99017.09;4276351;33;34253;-87
2021/08/05 04:15:00;;;;;;;6.37;3.72;;;;;;;24.83;53.95;99022.00;4288308;33;34744;-85
2021/08/05 04:17:28;;;;;;;5.95;3.83;;;;;;;24.97;53.70;99020.16;4288059;33;35627;-85
2021/08/05 04:19:55;;;;;;;6.70;3.60;;;;;;;25.03;54.29;99017.91;4288099;33;34160;-86
2021/08/05 04:22:23;;;;;;;7.35;3.42;;;;;;;24.96;54.92;99007.84;4288199;33;33495;-86
2021/08/05 04:24:51;;;;;;;4.78;3.30;;;;;;;24.91;55.45;99001.97;4288188;33;34095;-87
2021/08/05 04:27:18;;;;;;;6.82;3.53;;;;;;;24.87;55.78;98991.56;4287924;33;33934;-86
2021/08/05 04:29:46;;;;;;;6.68;3.92;;;;;;;24.92;56.03;98966.44;4288263;33;34169;-86
2021/08/05 04:32:13;;;;;;;7.07;4.12;;;;;;;24.84;56.66;98983.78;4288261;33;33797;-85
2021/08/05 04:34:41;;;;;;;8.55;4.00;;;;;;;24.92;57.12;98974.41;4288034;33;34387;-87
2021/08/05 04:37:08;;;;;;;5.53;3.72;;;;;;;24.88;57.41;98974.66;4288127;33;34597;-88
2021/08/05 04:39:39;;;;;;;6.25;3.92;;;;;;;24.75;57.14;98962.28;4276123;33;34209;-85
2021/08/05 04:42:06;;;;;;;7.45;4.12;;;;;;;24.83;56.43;98952.84;4288120;33;34263;-87
2021/08/05 04:44:35;;;;;;;6.72;3.72;;;;;;;24.75;56.36;98962.28;4288028;33;34083;-86
2021/08/05 04:47:04;;;;;;;6.07;4.12;;;;;;;24.65;56.99;98959.41;4287887;33;34781;-86
2021/08/05 04:49:31;;;;;;;4.93;3.78;;;;;;;24.69;56.84;98960.06;4276297;33;34110;-86
2021/08/05 04:52:00;;;;;;;5.93;3.75;;;;;;;24.64;57.40;98959.53;4276106;33;33213;-86
2021/08/05 04:54:28;;;;;;;5.85;4.22;;;;;;;24.72;57.15;98963.34;4288265;33;34913;-86
2021/08/05 04:56:55;;;;;;;6.72;4.40;;;;;;;24.70;57.71;98944.00;4288209;33;34587;-86
2021/08/05 04:59:23;;;;;;;6.15;4.25;;;;;;;24.70;57.68;98940.47;4275981;33;33421;-86
2021/08/05 05:01:50;;;;;;;6.20;4.65;;;;;;;24.64;57.84;98928.50;4287825;33;33517;-86
2021/08/05 05:04:18;;;;;;;5.70;4.37;;;;;;;24.76;58.04;98925.00;4274930;33;34045;-86
2021/08/05 05:06:45;;;;;;;5.65;4.50;;;;;;;24.65;58.13;98916.06;4287894;33;35471;-87
2021/08/05 05:09:13;;;;;;;7.82;4.12;;;;;;;24.45;58.13;98916.59;4287985;33;34169;-85
2021/08/05 05:11:41;;;;;;;5.62;4.20;;;;;;;24.85;57.27;98902.19;4287808;33;34286;-86
2021/08/05 05:14:08;;;;;;;5.55;4.35;;;;;;;24.66;57.98;98907.09;4287919;33;34053;-86
2021/08/05 05:16:36;;;;;;;12.18;4.55;;;;;;;24.59;58.46;98925.31;4264133;33;34876;-86
2021/08/05 05:19:03;;;;;;;6.50;4.45;;;;;;;24.65;57.99;98926.69;4288061;33;34908;-86
2021/08/05 05:21:31;;;;;;;5.62;4.32;;;;;;;24.59;58.03;98927.09;4287809;33;33555;-85
2021/08/05 05:23:59;;;;;;;7.68;4.80;;;;;;;24.46;58.66;98918.31;4287652;33;34004;-86
2021/08/05 05:26:26;;;;;;;7.20;4.72;;;;;;;24.50;58.53;98911.81;4287852;33;33938;-86
2021/08/05 05:28:54;;;;;;;7.57;4.37;;;;;;;24.55;58.50;98899.91;4287359;33;33935;-86
2021/08/05 05:31:21;;;;;;;5.65;4.45;;;;;;;24.53;59.02;98906.28;4287528;33;33327;-90
2021/08/05 05:33:49;;;;;;;8.32;4.18;;;;;;;24.71;58.52;98896.97;4287380;33;34330;-90
2021/08/05 05:36:16;;;;;;;7.95;5.15;;;;;;;24.20;59.71;98889.06;4275343;33;33921;-87
2021/08/05 05:38:44;;;;;;;7.15;4.65;;;;;;;24.50;59.78;98862.16;4275476;33;34320;-86
2021/08/05 05:41:12;;;;;;;6.70;4.57;;;;;;;24.81;58.81;98827.13;4275642;33;33764;-86
2021/08/05 05:43:39;;;;;;;7.68;4.78;;;;;;;24.66;58.60;98822.88;4287375;33;34023;-86
2021/08/05 05:46:07;;;;;;;6.50;4.37;;;;;;;24.29;59.38;98807.03;4287281;33;35606;-87
2021/08/05 05:48:34;;;;;;;6.37;4.10;;;;;;;24.28;58.53;98806.19;4275546;33;34316;-85
2021/08/05 05:51:02;;;;;;;6.12;4.60;;;;;;;24.19;58.56;98815.66;4288258;33;33464;-86
2021/08/05 05:53:30;;;;;;;6.43;4.40;;;;;;;24.20;58.61;98824.47;4287222;33;34743;-86
2021/08/05 05:55:57;;;;;;;6.82;4.30;;;;;;;24.18;58.11;98839.66;4287328;33;34687;-87
2021/08/05 05:58:25;;;;;;;4.90;4.12;;;;;;;24.42;57.94;98840.59;4287306;33;33987;-86
2021/08/05 06:00:53;;;;;;;5.20;4.00;;;;;;;24.36;58.20;98846.34;4275344;33;33756;-86
2021/08/05 06:03:20;;;;;;;5.70;4.07;;;;;;;24.35;57.87;98849.97;4288187;33;33860;-87
2021/08/05 06:05:49;;;;;;;6.18;4.60;;;;;;;24.40;57.34;98855.78;4275102;33;34850;-85
2021/08/05 06:08:16;;;;;;;5.50;4.45;;;;;;;24.37;58.13;98868.44;4275050;33;34293;-86
2021/08/05 06:10:45;;;;;;;6.25;4.60;;;;;;;24.49;57.50;98873.75;4288357;33;34080;-86
2021/08/05 06:13:12;;;;;;;6.25;4.10;;;;;;;24.52;57.51;98881.50;4287129;33;34623;-86
2021/08/05 06:15:39;;;;;;;6.80;4.35;;;;;;;24.44;57.58;98870.56;4288116;33;34308;-86
2021/08/05 06:18:07;;;;;;;6.80;4.35;;;;;;;24.42;57.79;98858.34;4289246;33;34423;-85
2021/08/05 06:20:35;;;;;;;10.18;5.10;;;;;;;24.66;57.11;98844.16;4276996;33;32511;-85
2021/08/05 06:23:03;;;;;;;8.75;4.90;;;;;;;24.56;57.80;98813.84;4288926;33;34214;-84
2021/08/05 06:25:31;;;;;;;5.30;4.20;;;;;;;24.43;58.52;98791.81;4289033;33;35554;-84
2021/08/05 06:27:58;;;;;;;7.85;4.65;;;;;;;24.07;59.05;98786.47;4288773;33;34205;-85
2021/08/05 06:30:26;;;;;;;7.72;4.75;;;;;;;24.28;58.72;98792.91;4288763;33;34430;-85
2021/08/05 06:32:53;;;;;;;6.93;4.53;;;;;;;24.22;59.12;98790.69;4276892;33;33376;-85
2021/08/05 06:35:21;;;;;;;7.68;4.85;;;;;;;24.29;59.11;98783.97;4276804;33;34009;-85
2021/08/05 06:37:49;;;;;;;6.90;4.30;;;;;;;24.50;57.71;98782.41;4288760;33;34867;-85
2021/08/05 06:40:17;;;;;;;8.75;4.62;;;;;;;24.35;57.54;98772.03;4288778;33;34213;-86
2021/08/05 06:42:45;;;;;;;9.80;5.40;;;;;;;24.27;57.94;98774.41;4276816;33;34179;-86
2021/08/05 06:45:13;;;;;;;6.03;4.37;;;;;;;24.14;58.39;98764.66;4276782;33;33944;-86
2021/08/05 06:47:44;;;;;;;6.97;4.82;;;;;;;24.26;57.56;98743.47;4288743;33;34282;-86
2021/08/05 06:50:15;;;;;;;6.15;4.00;;;;;;;24.23;57.69;98725.94;4288453;33;33517;-87
2021/08/05 06:52:43;;;;;;;6.43;4.50;;;;;;;24.32;58.08;98725.28;4277029;33;33558;-87
2021/08/05 06:55:11;;;;;;;8.05;4.43;;;;;;;24.23;57.88;98729.47;4290057;33;35534;-88
2021/08/05 06:57:38;;;;;;;7.32;4.35;;;;;;;24.32;57.73;98727.94;4277197;33;34760;-86
2021/08/05 07:00:06;;;;;;;8.80;4.50;;;;;;;24.46;57.33;98735.75;4288774;33;33367;-86
2021/08/05 07:02:34;;;;;;;10.07;4.53;;;;;;;24.39;57.49;98731.84;4276884;33;34064;-85
2021/08/05 07:05:03;;;;;;;7.07;4.87;;;;;;;24.50;57.96;98723.94;4288691;33;34551;-85
2021/08/05 07:07:31;;;;;;;6.70;4.75;;;;;;;24.47;58.85;98725.97;4288579;33;34231;-85
2021/08/05 07:09:59;;;;;;;7.45;4.95;;;;;;;24.22;60.31;98727.75;4288526;33;33590;-85
2021/08/05 07:12:27;;;;;;;6.85;4.85;;;;;;;24.26;60.71;98716.91;4288372;33;34881;-85
2021/08/05 07:14:55;;;;;;;6.90;4.97;;;;;;;24.28;60.55;98713.19;4276726;33;35545;-85
2021/08/05 07:17:23;;;;;;;7.62;4.50;;;;;;;24.23;60.81;98712.66;4276705;33;34100;-84
2021/08/05 07:19:50;;;;;;;6.97;5.05;;;;;;;24.28;60.18;98710.53;4276592;33;33926;-85
2021/08/05 07:22:19;;;;;;;9.10;5.07;;;;;;;24.18;60.56;98720.13;4289583;33;34267;-84
2021/08/05 07:24:47;;;;;;;6.65;5.18;;;;;;;24.19;60.56;98724.47;4288393;33;34597;-84
2021/08/05 07:27:18;;;;;;;7.18;4.82;;;;;;;24.03;60.93;98732.66;4276025;33;34010;-83
2021/08/05 07:29:46;;;;;;;6.95;5.03;;;;;;;24.13;60.64;98717.78;4289491;33;33424;-85
2021/08/05 07:32:13;;;;;;;8.52;5.15;;;;;;;24.06;60.88;98716.53;4289634;33;33948;-85
2021/08/05 07:34:41;;;;;;;7.00;5.12;;;;;;;24.09;61.08;98718.13;4276454;33;34853;-85
2021/08/05 07:37:08;;;;;;;6.87;5.18;;;;;;;24.09;61.00;98699.53;4288653;33;34883;-86
2021/08/05 07:39:36;;;;;;;7.93;5.72;;;;;;;24.15;60.88;98697.28;4288331;33;33571;-85
2021/08/05 07:42:04;;;;;;;7.93;5.62;;;;;;;24.20;60.56;98681.00;4289325;33;33823;-85
2021/08/05 07:44:31;;;;;;;6.87;4.93;;;;;;;23.80;61.39;98680.34;4289289;33;34706;-85
2021/08/05 07:46:59;;;;;;;9.50;5.10;;;;;;;24.00;60.63;98673.63;4276649;33;34324;-85
2021/08/05 07:49:27;;;;;;;7.15;5.07;;;;;;;24.27;59.60;98670.78;4288309;33;33271;-86
2021/08/05 07:51:54;;;;;;;7.65;5.47;;;;;;;24.10;60.17;98669.38;4288350;33;33862;-87
2021/08/05 07:54:22;;;;;;;7.37;5.30;;;;;;;24.26;59.34;98669.09;4288377;33;34477;-88
2021/08/05 07:56:49;;;;;;;9.05;4.72;;;;;;;24.25;59.91;98676.19;4288245;33;33349;-89
2021/08/05 07:59:17;;;;;;;8.73;5.40;;;;;;;24.25;60.03;98678.84;4288478;33;33560;-89
2021/08/05 08:01:44;;;;;;;12.90;6.37;;;;;;;24.18;59.90;98677.59;4276571;33;33368;-86
2021/08/05 08:04:13;;;;;;;15.50;7.43;;;;;;;24.31;60.05;98678.41;4288395;33;33970;-86
2021/08/05 08:06:40;;;;;;;11.70;6.43;;;;;;;24.13;62.25;98685.06;4288196;33;34233;-85
2021/08/05 08:09:08;;;;;;;16.92;7.65;;;;;;;23.56;64.84;98717.44;4288100;33;34055;-84
2021/08/05 08:11:36;;;;;;;13.02;7.15;;;;;;;23.52;64.98;98726.56;4288224;33;33936;-84
2021/08/05 08:14:04;;;;;;;11.73;7.82;;;;;;;23.38;65.12;98736.44;4276315;33;35443;-85
2021/08/05 08:16:31;;;;;;;11.48;7.65;;;;;;;23.23;65.93;98758.66;4288238;33;34319;-85
2021/08/05 08:18:59;;;;;;;10.10;7.47;;;;;;;23.17;65.57;98783.81;4276255;33;33696;-85
2021/08/05 08:21:27;;;;;;;11.27;8.48;;;;;;;22.78;66.53;98818.25;4288142;33;34725;-85
2021/08/05 08:23:54;;;;;;;13.40;8.48;;;;;;;22.54;67.59;98863.06;4288136;33;34512;-84
2021/08/05 08:26:22;;;;;;;18.70;9.55;;;;;;;22.23;68.78;98876.53;4264500;33;34344;-84
2021/08/05 08:28:50;;;;;;;13.57;8.35;;;;;;;22.36;67.53;98876.62;4276203;33;32829;-84
2021/08/05 08:31:17;;;;;;;14.48;8.40;;;;;;;22.15;68.41;98855.84;4276041;33;34326;-82
2021/08/05 08:33:45;;;;;;;11.43;8.20;;;;;;;22.32;67.32;98841.53;4288090;33;35514;-83
2021/08/05 08:36:12;;;;;;;13.15;7.65;;;;;;;22.38;67.29;98830.53;4288193;33;34179;-83
2021/08/05 08:38:42;;;;;;;14.40;7.95;;;;;;;22.22;67.72;98840.41;4287920;33;34295;-83
2021/08/05 08:41:12;;;;;;;10.13;7.93;;;;;;;22.51;67.34;98835.94;4288246;33;34691;-83
2021/08/05 08:43:40;;;;;;;13.50;8.93;;;;;;;22.40;66.88;98825.13;4288156;33;34271;-83
2021/08/05 08:46:10;;;;;;;13.70;8.77;;;;;;;22.46;67.29;98828.28;4288109;33;34075;-83
2021/08/05 08:48:40;;;;;;;14.20;8.23;;;;;;;22.64;67.53;98827.13;4288124;33;34312;-83
2021/08/05 08:51:08;;;;;;;13.93;8.82;;;;;;;22.52;67.38;98825.22;4275910;33;34184;-82
2021/08/05 08:53:37;;;;;;;14.65;8.85;;;;;;;22.49;68.31;98837.84;4288065;33;34567;-83
2021/08/05 08:56:06;;;;;;;12.60;8.43;;;;;;;22.53;68.31;98826.94;4287872;33;34245;-83
2021/08/05 08:58:34;;;;;;;11.15;7.93;;;;;;;22.72;68.10;98827.50;4276178;33;33960;-83
2021/08/05 09:01:02;;;;;;;10.95;8.23;;;;;;;22.81;67.86;98820.72;4287946;33;34761;-83
2021/08/05 09:03:30;;;;;;;14.80;8.35;;;;;;;23.04;67.14;98827.16;4288045;33;34835;-83
2021/08/05 09:05:58;;;;;;;15.70;7.40;;;;;;;23.04;66.06;98822.72;4287882;33;34930;-83
2021/08/05 09:08:25;;;;;;;12.90;7.95;;;;;;;23.07;66.36;98817.22;4276207;33;33530;-80
2021/08/05 09:10:57;;;;;;;14.32;8.10;;;;;;;23.07;66.56;98814.56;4288952;33;34916;-82
2021/08/05 09:13:25;;;;;;;11.35;8.05;;;;;;;23.22;66.21;98802.09;4275859;33;33967;-83
2021/08/05 09:15:52;;;;;;;15.02;8.93;;;;;;;23.26;66.58;98790.31;4287697;33;35022;-83
2021/08/05 09:18:38;;;;;;;13.88;8.82;;;;;;;23.28;66.87;98764.50;4276075;33;34108;-83
2021/08/05 09:21:22;;;;;;;9.05;7.93;;;;;;;23.58;66.02;98745.69;4275929;33;34003;-83
2021/08/05 09:23:59;;;;;;;14.95;9.02;;;;;;;23.47;66.19;98723.38;4264032;33;34845;-83
2021/08/05 09:26:29;;;;;;;13.95;9.02;;;;;;;23.49;66.09;98694.06;4287591;33;34215;-83
2021/08/05 09:29:07;;;;;;;19.90;9.32;;;;;;;23.53;65.86;98674.34;4287638;33;34244;-83
2021/08/05 09:31:36;;;;;;;10.43;7.95;;;;;;;23.70;66.05;98675.81;4288809;33;34822;-83
2021/08/05 09:34:11;;;;;;;11.38;7.68;;;;;;;23.46;66.14;98671.25;4275652;33;33915;-84
2021/08/05 09:36:40;;;;;;;13.10;8.13;;;;;;;23.80;64.54;98671.53;4287555;33;34141;-83
2021/08/05 09:39:26;;;;;;;15.13;8.95;;;;;;;23.73;64.64;98660.50;4287661;33;33526;-84
2021/08/05 09:41:57;;;;;;;8.73;7.12;;;;;;;23.36;65.68;98646.34;4275419;33;34689;-83
2021/08/05 09:44:38;;;;;;;10.98;8.18;;;;;;;23.72;65.42;98636.72;4275481;33;34862;-84
2021/08/05 09:47:07;;;;;;;10.77;8.45;;;;;;;23.96;65.07;98634.97;4288781;33;34193;-83
2021/08/05 09:49:39;;;;;;;16.17;9.23;;;;;;;24.15;64.31;98622.06;4288558;33;34652;-83
2021/08/05 09:52:10;;;;;;;16.42;9.57;;;;;;;24.20;64.08;98603.94;4289054;33;34692;-83
2021/08/05 09:54:38;;;;;;;16.83;10.23;;;;;;;24.22;64.68;98599.41;4289138;33;34605;-83
2021/08/05 09:57:06;;;;;;;16.73;9.32;;;;;;;24.24;64.93;98581.53;4289027;33;35072;-83
2021/08/05 09:59:51;;;;;;;14.45;9.57;;;;;;;24.37;64.73;98562.84;4277236;33;33614;-82
2021/08/05 10:02:19;;;;;;;11.60;8.40;;;;;;;24.40;65.27;98539.56;4289050;33;34006;-84
2021/08/05 10:04:48;;;;;;;14.75;9.75;;;;;;;23.82;65.22;98507.69;4289011;33;34833;-83
2021/08/05 10:07:16;;;;;;;14.27;9.70;;;;;;;23.85;66.39;98478.22;4277055;33;34354;-84
2021/08/05 10:09:44;;;;;;;10.07;7.68;;;;;;;23.96;65.92;98449.91;4288894;33;34372;-83
2021/08/05 10:12:21;;;;;;;10.95;8.15;;;;;;;23.89;64.98;98455.81;4288978;33;34070;-84
2021/08/05 10:14:51;;;;;;;11.05;8.70;;;;;;;23.85;64.23;98462.28;4289126;33;35487;-85
2021/08/05 10:17:20;;;;;;;8.77;7.75;;;;;;;23.49;63.95;98519.78;4288916;33;34272;-85
2021/08/05 10:19:47;;;;;;;12.52;8.73;;;;;;;23.67;63.58;98580.47;4289034;33;32891;-85
2021/08/05 10:22:16;;;;;;;11.40;8.70;;;;;;;23.82;63.33;98622.66;4289003;33;33967;-85
2021/08/05 10:24:47;;;;;;;12.52;9.15;;;;;;;23.87;63.39;98639.13;4288783;33;34643;-85
2021/08/05 10:27:16;;;;;;;11.48;9.55;;;;;;;23.74;63.73;98656.91;4277123;33;34886;-85
2021/08/05 10:29:45;;;;;;;12.65;9.18;;;;;;;23.79;63.81;98644.16;4276966;33;33294;-85
2021/08/05 10:32:15;;;;;;;13.62;9.65;;;;;;;23.67;64.49;98654.78;4289564;33;33948;-86
2021/08/05 10:34:43;;;;;;;11.70;9.63;;;;;;;23.71;64.75;98667.72;4288924;33;35442;-86
2021/08/05 10:37:12;;;;;;;10.82;9.20;;;;;;;23.85;64.70;98685.31;4288668;33;34557;-86
2021/08/05 10:39:41;;;;;;;13.98;10.00;;;;;;;23.99;63.99;98698.47;4288888;33;33695;-86
2021/08/05 10:42:11;;;;;;;11.90;9.55;;;;;;;23.94;64.33;98709.41;4288731;33;34850;-86
2021/08/05 10:44:39;;;;;;;15.55;10.85;;;;;;;24.00;64.22;98711.66;4277066;33;34964;-86
2021/08/05 10:47:08;;;;;;;18.30;11.00;;;;;;;23.90;65.34;98718.56;4277144;33;34293;-85
2021/08/05 10:49:36;;;;;;;15.30;10.45;;;;;;;23.87;66.23;98707.31;4276860;33;33412;-85
2021/08/05 10:52:04;;;;;;;12.52;10.70;;;;;;;24.00;66.02;98677.13;4276785;33;34035;-85
2021/08/05 10:55:02;;;;;;;15.70;11.35;;;;;;;24.04;66.52;98660.00;4276951;33;34594;-85
2021/08/05 10:57:30;;;;;;;12.40;10.43;;;;;;;24.28;65.70;98648.56;4279954;33;34137;-85
2021/08/05 11:00:09;;;;;;;12.30;10.32;;;;;;;24.57;64.35;98648.09;4265365;33;33415;-85
2021/08/05 11:02:47;;;;;;;17.37;10.95;;;;;;;24.66;64.04;98642.09;4265245;33;34400;-85
2021/08/05 11:05:42;;;;;;;13.80;10.65;;;;;;;24.56;64.62;98641.06;4288664;33;33859;-85
2021/08/05 11:08:13;;;;;;;12.63;10.10;;;;;;;24.57;64.63;98642.78;4283857;33;33556;-84
2021/08/05 11:10:41;;;;;;;14.23;10.98;;;;;;;24.72;63.74;98630.16;4276551;33;32906;-85
2021/08/05 11:13:09;;;;;;;12.50;10.10;;;;;;;24.74;64.15;98636.19;4276969;33;33933;-85
2021/08/05 11:15:38;;;;;;;15.80;11.05;;;;;;;24.65;64.36;98645.69;4289656;33;34010;-85
2021/08/05 11:18:06;;;;;;;18.52;11.75;;;;;;;24.56;64.53;98657.03;4276682;33;34227;-85
2021/08/05 11:20:52;;;;;;;11.63;10.38;;;;;;;24.53;64.19;98656.41;4288536;33;34348;-85
2021/08/05 11:23:32;;;;;;;12.30;10.10;;;;;;;24.47;64.31;98657.72;4276556;33;33617;-85
2021/08/05 11:26:12;;;;;;;11.88;10.25;;;;;;;24.61;63.49;98659.34;4288317;33;33848;-85
2021/08/05 11:28:45;;;;;;;13.43;11.15;;;;;;;24.63;63.35;98660.91;4276619;33;34147;-85
2021/08/05 11:31:22;;;;;;;12.73;11.27;;;;;;;24.73;63.41;98658.41;4253176;33;32280;-85
2021/08/05 11:33:55;;;;;;;14.02;11.88;;;;;;;24.75;64.25;98657.34;4290302;33;34366;-85
2021/08/05 11:36:36;;;;;;;13.88;11.60;;;;;;;24.75;64.71;98651.16;4278854;33;34135;-85
2021/08/05 11:39:22;;;;;;;14.32;12.05;;;;;;;24.57;65.74;98642.78;4288723;33;34326;-85
2021/08/05 11:41:57;;;;;;;13.75;12.35;;;;;;;24.73;65.20;98658.41;4276386;33;35403;-85